GGA3601 CYYZ-KPIT
Flight info
| Callsign | GGA3601 |
|---|---|
| Flight time | 0h 43m |
| Altitude | 28000 |
| Route | BETES3 ERI DCT YTOWN JESEY5 |
| Aircraft | A321/L-SDE3FGHIRWY/LB1 |
Departure
| Time | 2026-05-04 13:36 |
|---|---|
| Airport | Toronto Pearson International Airport (CYYZ) |
Arrival
| Time | 2026-05-04 14:19 |
|---|---|
| Airport | Pittsburgh International Airport (KPIT) |
| Time | Latitude | Longitude | Altitude | Speed | Heading |
|---|---|---|---|---|---|
| 2026-05-04 13:22 | 43.68538 | -79.62222 | 568 ft | 0 kts | 347° |
| 2026-05-04 13:31 | 43.68536 | -79.62222 | 568 ft | 1 kts | 347° |
| 2026-05-04 13:32 | 43.68521 | -79.62218 | 568 ft | 2 kts | 346° |
| 2026-05-04 13:32 | 43.68507 | -79.62213 | 569 ft | 2 kts | 347° |
| 2026-05-04 13:32 | 43.68492 | -79.62209 | 569 ft | 2 kts | 347° |
| 2026-05-04 13:32 | 43.68478 | -79.62204 | 569 ft | 2 kts | 341° |
| 2026-05-04 13:33 | 43.68465 | -79.62193 | 569 ft | 2 kts | 312° |
| 2026-05-04 13:33 | 43.68459 | -79.62180 | 570 ft | 0 kts | 295° |
| 2026-05-04 13:33 | 43.68458 | -79.62178 | 570 ft | 0 kts | 294° |
| 2026-05-04 13:34 | 43.68458 | -79.62225 | 569 ft | 16 kts | 227° |
| 2026-05-04 13:35 | 43.68377 | -79.62328 | 569 ft | 15 kts | 229° |
| 2026-05-04 13:35 | 43.68221 | -79.62482 | 570 ft | 13 kts | 227° |
| 2026-05-04 13:35 | 43.68153 | -79.62580 | 570 ft | 14 kts | 226° |
| 2026-05-04 13:36 | 43.68063 | -79.62715 | 569 ft | 10 kts | 245° |
| 2026-05-04 13:36 | 43.68097 | -79.62781 | 568 ft | 27 kts | 315° |
| 2026-05-04 13:36 | 43.68487 | -79.63290 | 555 ft | 124 kts | 315° |
| 2026-05-04 13:36 | 43.69202 | -79.64172 | 1203 ft | 137 kts | 312° |
| 2026-05-04 13:37 | 43.69898 | -79.64954 | 2086 ft | 134 kts | 315° |
| 2026-05-04 13:37 | 43.70689 | -79.65597 | 2691 ft | 141 kts | 326° |
| 2026-05-04 13:37 | 43.71663 | -79.66164 | 3129 ft | 157 kts | 329° |
| 2026-05-04 13:37 | 43.72729 | -79.66782 | 3551 ft | 177 kts | 329° |
| 2026-05-04 13:38 | 43.73783 | -79.67718 | 4010 ft | 186 kts | 303° |
| 2026-05-04 13:38 | 43.74066 | -79.69434 | 4552 ft | 195 kts | 261° |
| 2026-05-04 13:38 | 43.73666 | -79.71314 | 5077 ft | 218 kts | 251° |
| 2026-05-04 13:38 | 43.73159 | -79.73371 | 5754 ft | 238 kts | 252° |
| 2026-05-04 13:39 | 43.72665 | -79.75597 | 6606 ft | 251 kts | 254° |
| 2026-05-04 13:39 | 43.72189 | -79.77934 | 7703 ft | 256 kts | 254° |
| 2026-05-04 13:39 | 43.71396 | -79.80092 | 8765 ft | 265 kts | 235° |
| 2026-05-04 13:39 | 43.69983 | -79.81770 | 9817 ft | 278 kts | 214° |
| 2026-05-04 13:40 | 43.68118 | -79.82609 | 10747 ft | 298 kts | 192° |
| 2026-05-04 13:40 | 43.65955 | -79.82383 | 11423 ft | 325 kts | 174° |
| 2026-05-04 13:40 | 43.63687 | -79.81756 | 12083 ft | 343 kts | 172° |
| 2026-05-04 13:40 | 43.61337 | -79.81083 | 12947 ft | 352 kts | 172° |
| 2026-05-04 13:41 | 43.58919 | -79.80399 | 13891 ft | 358 kts | 172° |
| 2026-05-04 13:41 | 43.56489 | -79.79774 | 14801 ft | 362 kts | 175° |
| 2026-05-04 13:41 | 43.53962 | -79.79361 | 15727 ft | 365 kts | 179° |
| 2026-05-04 13:42 | 43.48889 | -79.78821 | 17471 ft | 374 kts | 180° |
| 2026-05-04 13:42 | 43.46297 | -79.78557 | 18288 ft | 379 kts | 180° |
| 2026-05-04 13:42 | 43.43623 | -79.78281 | 19121 ft | 384 kts | 180° |
| 2026-05-04 13:42 | 43.40961 | -79.78005 | 19904 ft | 390 kts | 180° |
| 2026-05-04 13:43 | 43.38243 | -79.77724 | 20668 ft | 395 kts | 180° |
| 2026-05-04 13:43 | 43.35510 | -79.77438 | 21382 ft | 401 kts | 179° |
| 2026-05-04 13:43 | 43.32687 | -79.77144 | 22102 ft | 407 kts | 180° |
| 2026-05-04 13:43 | 43.29889 | -79.76850 | 22798 ft | 412 kts | 180° |
| 2026-05-04 13:44 | 43.27009 | -79.76696 | 23471 ft | 414 kts | 185° |
| 2026-05-04 13:44 | 43.24142 | -79.76997 | 24172 ft | 413 kts | 192° |
| 2026-05-04 13:44 | 43.21346 | -79.77743 | 24981 ft | 411 kts | 198° |
| 2026-05-04 13:44 | 43.18586 | -79.78670 | 25799 ft | 410 kts | 199° |
| 2026-05-04 13:45 | 43.15834 | -79.79627 | 26572 ft | 410 kts | 199° |
| 2026-05-04 13:45 | 43.13062 | -79.80589 | 27265 ft | 413 kts | 199° |
| 2026-05-04 13:45 | 43.10296 | -79.81543 | 27688 ft | 416 kts | 199° |
| 2026-05-04 13:45 | 43.07494 | -79.82501 | 27771 ft | 417 kts | 199° |
| 2026-05-04 13:46 | 43.04679 | -79.83455 | 27772 ft | 418 kts | 199° |
| 2026-05-04 13:46 | 43.01840 | -79.84415 | 27772 ft | 418 kts | 199° |
| 2026-05-04 13:46 | 42.98999 | -79.85372 | 27771 ft | 418 kts | 199° |
| 2026-05-04 13:46 | 42.96172 | -79.86327 | 27776 ft | 418 kts | 199° |
| 2026-05-04 13:47 | 42.93388 | -79.87266 | 27775 ft | 418 kts | 199° |
| 2026-05-04 13:47 | 42.90555 | -79.88219 | 27776 ft | 418 kts | 199° |
| 2026-05-04 13:47 | 42.87709 | -79.89175 | 27781 ft | 418 kts | 199° |
| 2026-05-04 13:47 | 42.84892 | -79.90128 | 27782 ft | 418 kts | 199° |
| 2026-05-04 13:48 | 42.82135 | -79.91217 | 27781 ft | 415 kts | 203° |
| 2026-05-04 13:48 | 42.79398 | -79.92497 | 27781 ft | 415 kts | 204° |
| 2026-05-04 13:48 | 42.76685 | -79.93791 | 27784 ft | 415 kts | 205° |
| 2026-05-04 13:48 | 42.73967 | -79.95094 | 27784 ft | 415 kts | 205° |
| 2026-05-04 13:49 | 42.71243 | -79.96397 | 27787 ft | 414 kts | 205° |
| 2026-05-04 13:49 | 42.68547 | -79.97685 | 27785 ft | 415 kts | 205° |
| 2026-05-04 13:49 | 42.65799 | -79.98998 | 27786 ft | 414 kts | 205° |
| 2026-05-04 13:49 | 42.63090 | -80.00291 | 27787 ft | 414 kts | 205° |
| 2026-05-04 13:50 | 42.60380 | -80.01582 | 27791 ft | 414 kts | 205° |
| 2026-05-04 13:50 | 42.57664 | -80.02875 | 27799 ft | 414 kts | 205° |
| 2026-05-04 13:50 | 42.54923 | -80.04177 | 27798 ft | 414 kts | 205° |
| 2026-05-04 13:50 | 42.52224 | -80.05459 | 27797 ft | 414 kts | 205° |
| 2026-05-04 13:51 | 42.49496 | -80.06754 | 27801 ft | 414 kts | 205° |
| 2026-05-04 13:51 | 42.46794 | -80.08036 | 27803 ft | 414 kts | 205° |
| 2026-05-04 13:51 | 42.44083 | -80.09319 | 27808 ft | 414 kts | 205° |
| 2026-05-04 13:51 | 42.41367 | -80.10605 | 27809 ft | 414 kts | 205° |
| 2026-05-04 13:52 | 42.35920 | -80.13179 | 27815 ft | 414 kts | 205° |
| 2026-05-04 13:52 | 42.33201 | -80.14462 | 27815 ft | 414 kts | 205° |
| 2026-05-04 13:52 | 42.30505 | -80.15733 | 27817 ft | 414 kts | 205° |
| 2026-05-04 13:53 | 42.27773 | -80.17022 | 27818 ft | 414 kts | 205° |
| 2026-05-04 13:53 | 42.25066 | -80.18296 | 27817 ft | 414 kts | 205° |
| 2026-05-04 13:53 | 42.22374 | -80.19563 | 27820 ft | 414 kts | 205° |
| 2026-05-04 13:54 | 42.16917 | -80.22126 | 27827 ft | 414 kts | 205° |
| 2026-05-04 13:54 | 42.14236 | -80.23386 | 27829 ft | 414 kts | 205° |
| 2026-05-04 13:54 | 42.08791 | -80.25942 | 27831 ft | 414 kts | 204° |
| 2026-05-04 13:55 | 42.06090 | -80.27205 | 27832 ft | 414 kts | 205° |
| 2026-05-04 13:55 | 42.00690 | -80.29823 | 27833 ft | 412 kts | 207° |
| 2026-05-04 13:55 | 41.98014 | -80.31313 | 27834 ft | 411 kts | 208° |
| 2026-05-04 13:56 | 41.95372 | -80.32794 | 27831 ft | 411 kts | 208° |
| 2026-05-04 13:56 | 41.92739 | -80.34271 | 27830 ft | 410 kts | 208° |
| 2026-05-04 13:56 | 41.87473 | -80.37224 | 27834 ft | 411 kts | 208° |
| 2026-05-04 13:57 | 41.84859 | -80.38688 | 27831 ft | 411 kts | 208° |
| 2026-05-04 13:57 | 41.82196 | -80.40177 | 27831 ft | 411 kts | 208° |
| 2026-05-04 13:58 | 41.74294 | -80.44592 | 27836 ft | 413 kts | 208° |
| 2026-05-04 13:58 | 41.68991 | -80.47546 | 27834 ft | 412 kts | 208° |
| 2026-05-04 13:58 | 41.66348 | -80.49019 | 27836 ft | 413 kts | 208° |
| 2026-05-04 13:59 | 41.63683 | -80.50501 | 27836 ft | 412 kts | 208° |
| 2026-05-04 13:59 | 41.61042 | -80.51968 | 27611 ft | 414 kts | 208° |
| 2026-05-04 13:59 | 41.55745 | -80.54907 | 25932 ft | 415 kts | 208° |
| 2026-05-04 14:00 | 41.53075 | -80.56387 | 25104 ft | 414 kts | 208° |
| 2026-05-04 14:00 | 41.47776 | -80.59320 | 23423 ft | 413 kts | 208° |
| 2026-05-04 14:00 | 41.45134 | -80.60780 | 22768 ft | 407 kts | 208° |
| 2026-05-04 14:01 | 41.42544 | -80.62212 | 22181 ft | 401 kts | 208° |
| 2026-05-04 14:01 | 41.40013 | -80.63607 | 21582 ft | 396 kts | 208° |
| 2026-05-04 14:01 | 41.34943 | -80.66328 | 20398 ft | 391 kts | 203° |
| 2026-05-04 14:02 | 41.32297 | -80.67110 | 19793 ft | 395 kts | 192° |
| 2026-05-04 14:02 | 41.29524 | -80.67257 | 19192 ft | 398 kts | 182° |
| 2026-05-04 14:02 | 41.26798 | -80.67091 | 18602 ft | 397 kts | 181° |
| 2026-05-04 14:02 | 41.24026 | -80.66869 | 18010 ft | 394 kts | 180° |
| 2026-05-04 14:03 | 41.21298 | -80.66649 | 17434 ft | 392 kts | 180° |
| 2026-05-04 14:03 | 41.18583 | -80.66440 | 16860 ft | 389 kts | 181° |
| 2026-05-04 14:03 | 41.15915 | -80.66245 | 16303 ft | 386 kts | 180° |
| 2026-05-04 14:03 | 41.13258 | -80.66055 | 15726 ft | 383 kts | 181° |
| 2026-05-04 14:04 | 41.07974 | -80.65689 | 14562 ft | 376 kts | 180° |
| 2026-05-04 14:04 | 41.05379 | -80.65510 | 14008 ft | 373 kts | 180° |
| 2026-05-04 14:04 | 41.02841 | -80.65335 | 13431 ft | 370 kts | 181° |
| 2026-05-04 14:05 | 40.97741 | -80.64988 | 12251 ft | 364 kts | 180° |
| 2026-05-04 14:05 | 40.95230 | -80.64818 | 11670 ft | 361 kts | 180° |
| 2026-05-04 14:05 | 40.92752 | -80.64647 | 11155 ft | 355 kts | 180° |
| 2026-05-04 14:06 | 40.90327 | -80.64477 | 10948 ft | 341 kts | 180° |
| 2026-05-04 14:06 | 40.87960 | -80.63914 | 10930 ft | 347 kts | 163° |
| 2026-05-04 14:06 | 40.85860 | -80.62347 | 10945 ft | 353 kts | 144° |
| 2026-05-04 14:06 | 40.84014 | -80.60217 | 10946 ft | 354 kts | 140° |
| 2026-05-04 14:07 | 40.82195 | -80.57995 | 10944 ft | 355 kts | 139° |
| 2026-05-04 14:07 | 40.80391 | -80.55801 | 10935 ft | 355 kts | 139° |
| 2026-05-04 14:07 | 40.78563 | -80.53608 | 10939 ft | 354 kts | 140° |
| 2026-05-04 14:07 | 40.76743 | -80.51448 | 10833 ft | 349 kts | 140° |
| 2026-05-04 14:08 | 40.74964 | -80.49348 | 10294 ft | 346 kts | 140° |
| 2026-05-04 14:08 | 40.73190 | -80.47276 | 10040 ft | 335 kts | 141° |
| 2026-05-04 14:08 | 40.71476 | -80.45313 | 9994 ft | 318 kts | 142° |
| 2026-05-04 14:08 | 40.69844 | -80.43458 | 9984 ft | 307 kts | 142° |
| 2026-05-04 14:09 | 40.66615 | -80.39799 | 9980 ft | 307 kts | 142° |
| 2026-05-04 14:09 | 40.64971 | -80.37936 | 9978 ft | 307 kts | 142° |
| 2026-05-04 14:10 | 40.61774 | -80.34301 | 9724 ft | 302 kts | 142° |
| 2026-05-04 14:10 | 40.60200 | -80.32489 | 9289 ft | 303 kts | 140° |
| 2026-05-04 14:10 | 40.58946 | -80.30241 | 8888 ft | 307 kts | 117° |
| 2026-05-04 14:10 | 40.58388 | -80.27551 | 8521 ft | 307 kts | 97° |
| 2026-05-04 14:11 | 40.58276 | -80.24794 | 8168 ft | 305 kts | 92° |
| 2026-05-04 14:11 | 40.58177 | -80.19248 | 7397 ft | 302 kts | 93° |
| 2026-05-04 14:11 | 40.58102 | -80.16517 | 7027 ft | 300 kts | 94° |
| 2026-05-04 14:12 | 40.58014 | -80.13766 | 6653 ft | 299 kts | 94° |
| 2026-05-04 14:12 | 40.57921 | -80.11046 | 6281 ft | 297 kts | 94° |
| 2026-05-04 14:12 | 40.57806 | -80.05673 | 5572 ft | 293 kts | 93° |
| 2026-05-04 14:13 | 40.57789 | -80.03025 | 5104 ft | 287 kts | 92° |
| 2026-05-04 14:13 | 40.57779 | -80.00407 | 4364 ft | 286 kts | 93° |
| 2026-05-04 14:13 | 40.57752 | -79.97827 | 3637 ft | 281 kts | 99° |
| 2026-05-04 14:13 | 40.57166 | -79.95487 | 2945 ft | 265 kts | 128° |
| 2026-05-04 14:14 | 40.55873 | -79.93909 | 2375 ft | 250 kts | 157° |
| 2026-05-04 14:14 | 40.52496 | -79.93381 | 2134 ft | 257 kts | 194° |
| 2026-05-04 14:14 | 40.50914 | -79.94446 | 2686 ft | 245 kts | 222° |
| 2026-05-04 14:15 | 40.49479 | -79.97958 | 2983 ft | 208 kts | 253° |
| 2026-05-04 14:15 | 40.48912 | -80.01414 | 3014 ft | 194 kts | 256° |
| 2026-05-04 14:16 | 40.48338 | -80.04944 | 2943 ft | 200 kts | 258° |
| 2026-05-04 14:16 | 40.48225 | -80.06793 | 2967 ft | 202 kts | 265° |
| 2026-05-04 14:17 | 40.48294 | -80.10409 | 2797 ft | 188 kts | 268° |
| 2026-05-04 14:17 | 40.48344 | -80.12064 | 2553 ft | 172 kts | 267° |
| 2026-05-04 14:17 | 40.48414 | -80.14909 | 2067 ft | 140 kts | 267° |
| 2026-05-04 14:18 | 40.48446 | -80.16124 | 1862 ft | 126 kts | 268° |
| 2026-05-04 14:18 | 40.48500 | -80.18301 | 1565 ft | 117 kts | 265° |
| 2026-05-04 14:19 | 40.48550 | -80.20420 | 1301 ft | 116 kts | 267° |
| 2026-05-04 14:19 | 40.48572 | -80.21463 | 1160 ft | 113 kts | 266° |
| 2026-05-04 14:19 | 40.48591 | -80.22401 | 1135 ft | 89 kts | 272° |
| 2026-05-04 14:19 | 40.48625 | -80.22984 | 1134 ft | 28 kts | 282° |
| 2026-05-04 14:20 | 40.48696 | -80.23196 | 1137 ft | 23 kts | 299° |
| 2026-05-04 14:20 | 40.48776 | -80.23374 | 1143 ft | 25 kts | 293° |
| 2026-05-04 14:20 | 40.48797 | -80.23625 | 1145 ft | 32 kts | 275° |
| 2026-05-04 14:21 | 40.48936 | -80.24004 | 1147 ft | 28 kts | 9° |
| 2026-05-04 14:21 | 40.49182 | -80.23988 | 1154 ft | 35 kts | 2° |
| 2026-05-04 14:21 | 40.49419 | -80.23978 | 1155 ft | 31 kts | 1° |
| 2026-05-04 14:21 | 40.49624 | -80.23977 | 1157 ft | 27 kts | 358° |
| 2026-05-04 14:22 | 40.49701 | -80.24122 | 1160 ft | 19 kts | 274° |
| 2026-05-04 14:22 | 40.49687 | -80.24268 | 1159 ft | 0 kts | 251° |
| 2026-05-04 14:22 | 40.49686 | -80.24272 | 1159 ft | 1 kts | 250° |
| 2026-05-04 14:22 | 40.49671 | -80.24324 | 1157 ft | 6 kts | 297° |
| 2026-05-04 14:23 | 40.49696 | -80.24353 | 1159 ft | 1 kts | 318° |
| 2026-05-04 14:23 | 40.49700 | -80.24358 | 1160 ft | 1 kts | 317° |
| 2026-05-04 14:23 | 40.49701 | -80.24358 | 1160 ft | 0 kts | 317° |